Time;durP1;ratioP1;P1;durP2;ratioP2;P2;SDS_P1;SDS_P2;PMS_P1;PMS_P2;Temp;Humidity;BMP_temperature;BMP_pressure;BME280_temperature;BME280_humidity;BME280_pressure;Samples;Min_cycle;Max_cycle;Signal;HPM_P1;HPM_P2
2022/10/12 00:02:19;;;;;;;41.20;30.10;;;;;;;17.27;89.16;100131.63;5072044;28;20192;-73
2022/10/12 00:04:46;;;;;;;38.37;30.53;;;;;;;17.27;89.38;100126.25;5071613;28;20202;-73
2022/10/12 00:07:12;;;;;;;42.63;31.73;;;;;;;17.26;89.25;100122.72;5072323;28;20200;-72
2022/10/12 00:09:40;;;;;;;38.00;30.43;;;;;;;17.16;89.43;100106.31;5070338;28;20204;-74
2022/10/12 00:12:06;;;;;;;41.43;31.83;;;;;;;17.13;89.57;100122.03;5068739;28;20273;-74
2022/10/12 00:14:35;;;;;;;41.43;30.83;;;;;;;17.07;89.92;100122.94;5070483;28;20241;-72
2022/10/12 00:17:04;;;;;;;39.73;30.07;;;;;;;17.06;90.67;100132.03;5069402;28;20199;-72
2022/10/12 00:19:31;;;;;;;41.23;31.17;;;;;;;17.07;90.63;100122.94;5069984;28;20203;-72
2022/10/12 00:21:57;;;;;;;40.53;31.63;;;;;;;17.06;90.39;100121.31;5071239;28;20623;-72
2022/10/12 00:24:24;;;;;;;41.10;32.20;;;;;;;17.08;90.44;100124.56;5071294;28;20196;-72
2022/10/12 00:26:51;;;;;;;44.13;33.53;;;;;;;17.08;90.46;100130.78;5071430;28;20195;-72
2022/10/12 00:29:18;;;;;;;41.77;32.27;;;;;;;17.06;90.53;100127.47;5070921;28;20249;-72
2022/10/12 00:31:45;;;;;;;46.03;31.23;;;;;;;17.02;90.98;100130.84;5071447;28;20193;-72
2022/10/12 00:34:13;;;;;;;45.10;31.43;;;;;;;17.03;91.11;100140.53;5071079;28;20200;-73
2022/10/12 00:36:40;;;;;;;40.30;31.33;;;;;;;16.98;91.20;100135.03;5069279;28;20270;-72
2022/10/12 00:39:09;;;;;;;45.20;32.20;;;;;;;16.95;90.83;100135.44;5070941;28;20668;-72
2022/10/12 00:41:39;;;;;;;43.70;32.60;;;;;;;16.97;91.23;100130.66;5071040;28;20206;-73
2022/10/12 00:44:41;;;;;;;44.70;31.60;;;;;;;16.95;91.22;100127.41;5071215;28;20725;-72
2022/10/12 00:47:16;;;;;;;42.77;30.23;;;;;;;16.99;91.32;100131.28;5071076;28;20196;-73
2022/10/12 00:49:48;;;;;;;31.00;25.63;;;;;;;17.00;91.04;100135.59;5071304;28;20210;-72
2022/10/12 00:52:18;;;;;;;32.87;25.63;;;;;;;16.99;89.46;100137.44;5072670;28;20668;-72
2022/10/12 00:54:48;;;;;;;29.97;25.77;;;;;;;17.00;89.15;100133.75;5074648;28;20238;-72
2022/10/12 00:57:17;;;;;;;29.73;22.67;;;;;;;16.99;88.91;100136.66;5074756;28;20256;-72
2022/10/12 00:59:49;;;;;;;25.20;21.13;;;;;;;17.00;87.47;100135.59;5074495;28;20331;-72
2022/10/12 01:02:17;;;;;;;19.90;17.53;;;;;;;17.02;87.22;100130.84;5060230;28;20718;-72
2022/10/12 01:04:46;;;;;;;23.97;19.90;;;;;;;17.03;85.57;100138.66;5054807;28;20243;-72
2022/10/12 01:07:12;;;;;;;21.03;18.17;;;;;;;17.04;84.94;100134.94;5054435;28;20553;-73
2022/10/12 01:09:40;;;;;;;21.00;15.83;;;;;;;17.05;84.66;100136.59;5054667;28;20222;-73
2022/10/12 01:12:08;;;;;;;29.67;21.13;;;;;;;17.08;84.12;100135.31;5055330;28;20232;-72
2022/10/12 01:14:35;;;;;;;26.10;19.87;;;;;;;17.07;84.68;100128.31;5054264;28;20567;-73
2022/10/12 01:17:12;;;;;;;21.63;18.10;;;;;;;17.08;85.08;100121.91;5054763;28;20558;-72
2022/10/12 01:20:01;;;;;;;20.17;17.07;;;;;;;17.07;84.60;100121.06;5054825;28;20192;-73
2022/10/12 01:22:33;;;;;;;18.53;16.43;;;;;;;17.08;84.19;100132.63;5068906;28;20716;-74
2022/10/12 01:25:13;;;;;;;16.63;14.87;;;;;;;17.06;83.87;100124.78;5074515;28;20248;-72
2022/10/12 01:27:46;;;;;;;20.97;17.30;;;;;;;17.04;83.96;100118.00;5074586;28;20242;-72
2022/10/12 01:30:22;;;;;;;24.47;16.87;;;;;;;17.00;83.87;100132.91;5074644;28;20187;-73
2022/10/12 01:33:05;;;;;;;18.50;16.17;;;;;;;16.93;83.70;100135.66;5074166;28;20744;-73
2022/10/12 01:35:42;;;;;;;24.07;16.93;;;;;;;16.89;83.42;100136.31;5073822;28;20235;-73
2022/10/12 01:38:24;;;;;;;24.60;17.97;;;;;;;16.87;84.72;100125.00;5074387;28;20192;-73
2022/10/12 01:40:57;;;;;;;21.73;17.10;;;;;;;16.89;85.09;100139.00;5073851;28;20721;-73
2022/10/12 01:43:32;;;;;;;20.13;16.70;;;;;;;16.88;85.14;100137.38;5074533;28;20257;-73
2022/10/12 01:46:06;;;;;;;23.93;17.43;;;;;;;16.91;85.28;100145.00;5074232;28;20184;-72
2022/10/12 01:48:33;;;;;;;22.33;17.83;;;;;;;16.93;85.57;100143.72;5074404;28;20258;-73
2022/10/12 01:51:03;;;;;;;21.17;16.57;;;;;;;16.91;85.20;100145.00;5073972;28;20192;-72
2022/10/12 01:53:40;;;;;;;20.87;17.67;;;;;;;16.86;84.94;100145.63;5073747;28;20188;-72
2022/10/12 01:56:14;;;;;;;20.90;17.13;;;;;;;16.84;84.25;100142.38;5073908;28;20188;-72
2022/10/12 01:58:55;;;;;;;17.23;15.43;;;;;;;16.88;84.31;100140.06;5074017;28;20209;-72
2022/10/12 02:01:33;;;;;;;20.07;16.37;;;;;;;16.90;84.01;100143.34;5073492;28;20176;-73
2022/10/12 02:04:09;;;;;;;19.07;16.07;;;;;;;16.94;83.69;100141.88;5073202;28;20190;-72
2022/10/12 02:06:41;;;;;;;20.50;14.87;;;;;;;16.91;83.15;100139.63;5073557;28;20726;-72
2022/10/12 02:09:14;;;;;;;20.23;14.47;;;;;;;16.97;82.77;100138.72;5073345;28;20204;-73
2022/10/12 02:11:44;;;;;;;15.30;13.83;;;;;;;17.01;82.43;100150.66;5074052;28;20352;-73
2022/10/12 02:14:16;;;;;;;16.47;14.30;;;;;;;17.03;81.96;100149.38;5074005;28;20184;-73
2022/10/12 02:16:49;;;;;;;15.30;13.23;;;;;;;17.07;81.61;100147.09;5073260;28;20246;-73
2022/10/12 02:19:21;;;;;;;14.50;13.03;;;;;;;17.09;81.46;100142.31;5073364;28;20753;-73
2022/10/12 02:21:49;;;;;;;16.27;12.70;;;;;;;17.09;81.01;100147.69;5073238;28;20245;-74
2022/10/12 02:24:18;;;;;;;18.43;13.63;;;;;;;17.10;81.03;100155.53;5073872;28;20192;-74
2022/10/12 02:26:48;;;;;;;14.57;11.77;;;;;;;17.11;80.67;100156.34;5073085;28;20214;-73
2022/10/12 02:29:21;;;;;;;13.87;12.33;;;;;;;17.14;80.78;100155.88;5073538;28;20224;-73
2022/10/12 02:31:56;;;;;;;14.53;11.83;;;;;;;17.15;80.05;100157.56;5073071;28;20206;-75
2022/10/12 02:34:28;;;;;;;11.53;10.53;;;;;;;17.12;80.05;100147.25;5073231;28;20191;-73
2022/10/12 02:37:04;;;;;;;11.97;10.87;;;;;;;17.17;79.80;100155.44;5073097;28;20662;-74
2022/10/12 02:39:37;;;;;;;12.57;11.03;;;;;;;17.17;79.50;100150.91;5073146;28;20717;-74
2022/10/12 02:42:11;;;;;;;13.13;11.63;;;;;;;17.16;79.81;100148.44;5072884;28;20635;-74
2022/10/12 02:44:41;;;;;;;12.00;10.80;;;;;;;17.15;79.80;100146.81;5073128;28;20257;-74
2022/10/12 02:47:11;;;;;;;11.13;10.00;;;;;;;17.19;79.75;100156.06;5073200;28;20241;-74
2022/10/12 02:49:40;;;;;;;16.87;11.23;;;;;;;17.20;79.45;100158.53;5073049;28;20281;-74
2022/10/12 02:52:08;;;;;;;12.17;10.83;;;;;;;17.21;79.71;100145.91;5072679;28;20196;-73
2022/10/12 02:54:35;;;;;;;11.20;9.53;;;;;;;17.19;79.66;100148.00;5072816;28;20245;-73
2022/10/12 02:57:02;;;;;;;10.67;9.47;;;;;;;17.21;79.42;100157.47;5073012;28;20196;-74
2022/10/12 02:59:28;;;;;;;10.63;9.40;;;;;;;17.22;79.42;100160.97;5072625;28;20199;-73
2022/10/12 03:01:55;;;;;;;11.70;9.97;;;;;;;17.22;78.94;100152.91;5061436;28;20269;-73
2022/10/12 03:04:23;;;;;;;20.57;17.70;;;;;;;17.22;79.50;100161.81;5052725;28;20252;-73
2022/10/12 03:06:50;;;;;;;15.63;13.13;;;;;;;17.24;79.52;100161.59;5052968;28;20630;-74
2022/10/12 03:09:17;;;;;;;11.03;9.97;;;;;;;17.22;79.21;100155.59;5052785;28;20274;-74
2022/10/12 03:11:44;;;;;;;9.43;8.50;;;;;;;17.23;78.99;100162.63;5052853;28;20790;-74
2022/10/12 03:14:11;;;;;;;8.97;7.80;;;;;;;17.24;79.09;100164.28;5052136;28;20193;-74
2022/10/12 03:16:38;;;;;;;8.30;7.73;;;;;;;17.21;78.64;100162.84;5052863;28;20192;-74
2022/10/12 03:19:05;;;;;;;8.47;7.77;;;;;;;17.22;78.42;100167.19;5052366;28;20200;-74
2022/10/12 03:21:33;;;;;;;12.43;7.20;;;;;;;17.22;78.71;100163.66;5059067;28;20739;-74
2022/10/12 03:24:00;;;;;;;7.10;6.60;;;;;;;17.21;78.41;100159.34;5072291;28;20242;-75
2022/10/12 03:26:26;;;;;;;7.53;6.37;;;;;;;17.15;78.06;100157.56;5072075;28;20617;-75
2022/10/12 03:28:53;;;;;;;8.40;7.53;;;;;;;17.12;78.16;100153.44;5072375;28;20220;-76
2022/10/12 03:31:20;;;;;;;8.03;6.57;;;;;;;17.04;78.15;100160.97;5072101;28;20196;-75
2022/10/12 03:33:46;;;;;;;6.90;6.37;;;;;;;17.04;78.23;100160.97;5072485;28;20188;-75
2022/10/12 03:36:13;;;;;;;9.40;6.77;;;;;;;17.03;78.41;100159.31;5072555;28;20240;-74
2022/10/12 03:38:41;;;;;;;7.47;6.37;;;;;;;17.02;78.52;100160.38;5072363;28;20192;-74
2022/10/12 03:41:08;;;;;;;6.57;5.90;;;;;;;16.97;78.67;100155.66;5071874;28;20231;-75
2022/10/12 03:43:35;;;;;;;7.63;6.40;;;;;;;16.96;78.54;100162.06;5072362;28;20199;-75
2022/10/12 03:46:02;;;;;;;7.63;6.13;;;;;;;16.81;78.96;100166.13;5072210;28;20200;-74
2022/10/12 03:48:29;;;;;;;6.60;5.90;;;;;;;16.81;79.24;100158.06;5072783;28;20632;-74
2022/10/12 03:50:55;;;;;;;9.47;5.37;;;;;;;16.67;79.12;100143.97;5072142;28;20247;-73
2022/10/12 03:53:22;;;;;;;6.23;5.77;;;;;;;16.66;79.44;100162.97;5071855;28;20681;-74
2022/10/12 03:55:50;;;;;;;6.20;5.60;;;;;;;16.69;79.95;100157.13;5072091;28;20617;-74
2022/10/12 03:58:17;;;;;;;6.93;5.57;;;;;;;16.71;80.00;100160.44;5071399;28;20737;-74
2022/10/12 04:00:44;;;;;;;9.13;5.20;;;;;;;16.62;79.58;100157.19;5071071;28;20227;-74
2022/10/12 04:03:11;;;;;;;6.07;5.13;;;;;;;16.50;79.46;100158.13;5051736;28;20666;-73
2022/10/12 04:05:38;;;;;;;7.43;5.00;;;;;;;16.44;80.33;100161.66;5051960;28;20196;-73
2022/10/12 04:08:05;;;;;;;5.83;5.33;;;;;;;16.46;80.44;100156.94;5051810;28;20719;-73
2022/10/12 04:10:32;;;;;;;5.80;5.17;;;;;;;16.24;80.28;100110.00;5051934;28;20234;-72
2022/10/12 04:13:00;;;;;;;5.43;5.00;;;;;;;16.52;80.14;100153.34;5051788;28;20184;-73
2022/10/12 04:15:27;;;;;;;5.57;4.90;;;;;;;16.56;80.40;100162.59;5052275;28;20286;-73
2022/10/12 04:17:54;;;;;;;5.47;5.07;;;;;;;16.57;80.52;100156.22;5051724;28;20247;-74
2022/10/12 04:20:21;;;;;;;5.50;5.03;;;;;;;16.65;80.06;100161.31;5051839;28;20200;-75
2022/10/12 04:22:47;;;;;;;7.60;5.10;;;;;;;16.49;80.37;100159.19;5068709;28;20742;-75
2022/10/12 04:25:14;;;;;;;5.87;5.47;;;;;;;16.50;80.54;100164.31;5071793;28;20188;-75
2022/10/12 04:27:41;;;;;;;6.30;5.80;;;;;;;16.57;80.63;100166.97;5073540;28;20247;-75
2022/10/12 04:30:11;;;;;;;7.47;5.47;;;;;;;16.52;80.35;100151.50;5075436;28;20224;-74
2022/10/12 04:32:38;;;;;;;8.03;6.00;;;;;;;16.63;80.17;100166.06;5076041;28;20200;-73
2022/10/12 04:35:05;;;;;;;6.53;5.67;;;;;;;16.67;79.97;100164.59;5075378;28;20631;-73
2022/10/12 04:37:31;;;;;;;8.27;6.27;;;;;;;16.70;80.08;100169.53;5075102;28;20249;-73
2022/10/12 04:39:58;;;;;;;7.33;5.37;;;;;;;16.66;80.10;100162.97;5075004;28;20200;-73
2022/10/12 04:42:25;;;;;;;11.07;5.40;;;;;;;16.67;79.64;100164.59;5074839;28;20661;-73
2022/10/12 04:44:51;;;;;;;7.57;5.23;;;;;;;16.70;79.79;100169.53;5075441;28;20241;-73
2022/10/12 04:47:19;;;;;;;7.37;5.33;;;;;;;16.69;78.94;100173.22;5075036;28;20625;-73
2022/10/12 04:49:46;;;;;;;8.63;5.80;;;;;;;16.74;79.59;100181.47;5074985;28;20856;-72
2022/10/12 04:52:13;;;;;;;6.37;5.50;;;;;;;16.83;79.64;100180.97;5075346;28;20205;-73
2022/10/12 04:54:40;;;;;;;5.07;4.53;;;;;;;16.92;79.47;100174.28;5075689;28;20193;-71
2022/10/12 04:57:07;;;;;;;9.20;5.50;;;;;;;17.06;78.60;100180.38;5074794;28;20192;-73
2022/10/12 04:59:34;;;;;;;9.43;5.30;;;;;;;17.06;78.46;100185.75;5075797;28;20245;-75
2022/10/12 05:02:01;;;;;;;8.67;5.67;;;;;;;17.14;77.95;100194.31;5074743;28;20206;-74
2022/10/12 05:04:29;;;;;;;6.43;5.67;;;;;;;17.00;77.93;100189.28;5075121;28;20248;-75
2022/10/12 05:06:56;;;;;;;8.00;6.07;;;;;;;17.11;79.04;100192.06;5075019;28;20199;-72
2022/10/12 05:09:22;;;;;;;8.10;5.70;;;;;;;17.11;78.44;100183.19;5064497;28;20216;-75
2022/10/12 05:11:49;;;;;;;9.03;6.93;;;;;;;17.09;77.89;100194.16;5074467;28;20288;-73
2022/10/12 05:14:16;;;;;;;11.50;6.20;;;;;;;17.01;78.29;100175.66;5073996;28;20674;-71
2022/10/12 05:16:42;;;;;;;21.33;8.37;;;;;;;17.21;78.03;100199.63;5074847;28;20188;-69
2022/10/12 05:19:09;;;;;;;8.10;5.53;;;;;;;17.36;80.23;100202.78;5073918;28;20253;-69
2022/10/12 05:21:39;;;;;;;10.30;5.13;;;;;;;17.71;76.96;100204.69;5074325;28;20737;-75
2022/10/12 05:24:06;;;;;;;6.50;4.93;;;;;;;18.03;75.61;100216.06;5074501;28;20722;-83
2022/10/12 05:26:33;;;;;;;9.23;5.43;;;;;;;18.11;74.94;100219.28;5064666;28;20186;-73
2022/10/12 05:28:59;;;;;;;7.80;5.60;;;;;;;18.41;77.35;100213.91;5053549;28;20700;-71
2022/10/12 05:31:26;;;;;;;10.17;6.47;;;;;;;18.76;74.23;100223.75;5065917;28;20552;-68
2022/10/12 05:33:53;;;;;;;10.37;7.50;;;;;;;18.90;69.84;100224.34;5074276;28;20198;-69
2022/10/12 05:36:20;;;;;;;11.00;6.57;;;;;;;19.08;70.50;100232.34;5074832;28;20195;-66
2022/10/12 05:38:48;;;;;;;11.57;8.37;;;;;;;19.19;69.89;100231.53;5074266;28;20345;-68
2022/10/12 05:41:14;;;;;;;12.23;7.10;;;;;;;19.29;69.09;100237.19;5074531;28;20196;-68
2022/10/12 05:43:41;;;;;;;14.67;7.87;;;;;;;19.50;67.18;100247.38;5062722;28;20206;-71
2022/10/12 05:46:08;;;;;;;11.03;8.73;;;;;;;19.48;67.43;100250.28;5052616;28;20200;-69
2022/10/12 05:48:34;;;;;;;19.83;9.83;;;;;;;19.44;67.26;100254.50;5053895;28;20667;-70
2022/10/12 05:51:01;;;;;;;12.87;9.07;;;;;;;19.33;67.40;100246.44;5052373;28;20220;-70
2022/10/12 05:53:28;;;;;;;15.17;9.17;;;;;;;19.20;67.74;100247.44;5057079;28;20605;-69
2022/10/12 05:55:58;;;;;;;15.57;9.63;;;;;;;19.09;68.39;100248.28;5060680;28;20205;-70
2022/10/12 05:58:26;;;;;;;16.57;9.30;;;;;;;19.01;68.58;100258.56;5050996;28;20709;-71
2022/10/12 06:00:53;;;;;;;30.23;11.70;;;;;;;18.92;69.19;100259.94;5048293;28;20200;-72
2022/10/12 06:03:20;;;;;;;15.73;9.10;;;;;;;18.77;69.74;100246.09;5065626;28;20229;-71
2022/10/12 06:05:47;;;;;;;16.87;8.87;;;;;;;18.74;69.92;100262.72;5061244;28;20667;-70
2022/10/12 06:08:14;;;;;;;12.30;9.10;;;;;;;18.67;70.07;100264.69;5068230;28;20192;-65
2022/10/12 06:10:45;;;;;;;20.83;9.30;;;;;;;18.58;70.37;100256.09;5054072;28;20239;-66
2022/10/12 06:13:13;;;;;;;18.33;9.33;;;;;;;18.42;70.57;100264.00;5049870;28;20710;-65
2022/10/12 06:15:39;;;;;;;16.53;9.20;;;;;;;18.36;71.13;100267.59;5051787;28;20197;-66
2022/10/12 06:18:06;;;;;;;12.00;8.63;;;;;;;18.30;71.27;100271.97;5064053;28;20195;-69
2022/10/12 06:20:33;;;;;;;10.17;8.80;;;;;;;18.20;71.81;100262.81;5068140;28;20251;-66
2022/10/12 06:23:00;;;;;;;31.83;11.03;;;;;;;18.18;71.82;100268.41;5066348;28;20611;-66
2022/10/12 06:25:26;;;;;;;25.20;9.73;;;;;;;18.08;72.44;100275.38;5072800;28;20188;-66
2022/10/12 06:27:53;;;;;;;16.20;9.57;;;;;;;18.06;72.55;100277.47;5072736;28;20196;-66
2022/10/12 06:30:21;;;;;;;16.13;8.97;;;;;;;18.04;72.70;100274.16;5061144;28;20410;-66
2022/10/12 06:32:48;;;;;;;22.57;11.03;;;;;;;18.10;72.79;100281.34;5061859;28;20197;-67
2022/10/12 06:35:15;;;;;;;21.80;10.87;;;;;;;18.05;72.75;100284.69;5064093;28;20193;-67
2022/10/12 06:37:48;;;;;;;12.73;8.30;;;;;;;18.02;73.05;100289.72;5061759;28;20193;-66
2022/10/12 06:40:14;;;;;;;23.80;10.33;;;;;;;17.99;72.68;100284.78;5062601;28;20243;-66
2022/10/12 06:42:41;;;;;;;17.63;10.47;;;;;;;18.01;73.17;100291.56;5061308;28;20579;-66
2022/10/12 06:45:09;;;;;;;14.97;9.23;;;;;;;17.97;72.86;100286.88;5063298;28;20200;-66
2022/10/12 06:47:37;;;;;;;13.87;8.23;;;;;;;17.95;72.78;100287.09;5062979;28;20184;-66
2022/10/12 06:50:04;;;;;;;13.67;7.03;;;;;;;18.02;72.55;100295.09;5055259;28;20207;-67
2022/10/12 06:52:31;;;;;;;13.97;7.50;;;;;;;17.99;71.60;100300.91;5055583;28;20188;-70
2022/10/12 06:54:58;;;;;;;11.73;8.00;;;;;;;18.02;72.18;100305.84;5058755;28;20224;-68
2022/10/12 06:57:24;;;;;;;19.03;6.53;;;;;;;18.02;71.88;100300.47;5058918;28;20197;-67
2022/10/12 06:59:51;;;;;;;11.23;5.87;;;;;;;18.05;71.92;100305.41;5062415;28;20672;-66
2022/10/12 07:02:18;;;;;;;11.57;4.77;;;;;;;18.04;70.94;100307.25;5061793;28;20245;-66
2022/10/12 07:04:49;;;;;;;12.73;5.27;;;;;;;18.04;70.97;100314.50;5062714;28;20729;-69
2022/10/12 07:07:16;;;;;;;6.10;5.10;;;;;;;17.92;70.65;100289.44;5062394;28;20181;-67
2022/10/12 07:09:43;;;;;;;9.97;5.10;;;;;;;18.05;71.24;100308.09;5060395;28;20691;-70
2022/10/12 07:12:10;;;;;;;8.77;4.60;;;;;;;18.08;70.63;100310.31;5063608;28;20223;-69
2022/10/12 07:14:36;;;;;;;26.20;5.70;;;;;;;18.09;70.89;100310.09;5058423;28;20203;-68
2022/10/12 07:17:03;;;;;;;12.83;5.20;;;;;;;17.99;71.04;100311.66;5052058;28;20193;-69
2022/10/12 07:19:30;;;;;;;7.10;5.00;;;;;;;17.79;71.37;100311.88;5050505;28;20255;-74
2022/10/12 07:21:58;;;;;;;6.07;4.53;;;;;;;17.93;71.41;100304.50;5059607;28;20196;-70
2022/10/12 07:24:25;;;;;;;12.17;5.43;;;;;;;18.05;71.36;100310.78;5066761;28;20193;-68
2022/10/12 07:26:52;;;;;;;8.90;5.57;;;;;;;18.16;70.68;100308.16;5068447;28;20204;-69
2022/10/12 07:29:19;;;;;;;8.73;4.97;;;;;;;18.23;70.19;100313.47;5066063;28;20207;-73
2022/10/12 07:31:45;;;;;;;9.70;4.90;;;;;;;18.15;70.06;100316.44;5062572;28;20715;-68
2022/10/12 07:34:12;;;;;;;11.63;4.43;;;;;;;18.28;70.05;100321.66;5055309;28;20200;-69
2022/10/12 07:36:43;;;;;;;8.83;4.83;;;;;;;18.40;69.50;100314.50;5062910;28;20297;-72
2022/10/12 07:39:11;;;;;;;5.37;4.97;;;;;;;18.55;69.39;100323.03;5068892;28;20207;-66
2022/10/12 07:41:38;;;;;;;4.63;4.30;;;;;;;18.64;68.16;100313.56;5051489;28;20566;-67
2022/10/12 07:44:05;;;;;;;8.73;4.50;;;;;;;18.74;67.82;100314.66;5057901;28;20239;-69
2022/10/12 07:46:31;;;;;;;10.40;3.87;;;;;;;18.84;67.28;100319.50;5059743;28;20189;-66
2022/10/12 07:48:58;;;;;;;13.00;4.73;;;;;;;18.90;66.60;100322.09;5058622;28;20252;-70
2022/10/12 07:51:25;;;;;;;8.23;4.77;;;;;;;18.74;67.19;100327.31;5053717;28;20591;-73
2022/10/12 07:53:52;;;;;;;5.13;4.60;;;;;;;18.62;68.12;100318.38;5061546;28;20194;-73
2022/10/12 07:56:20;;;;;;;6.40;3.27;;;;;;;18.80;67.66;100318.31;5065071;28;20196;-67
2022/10/12 07:58:50;;;;;;;6.37;3.70;;;;;;;18.83;66.90;100315.19;5065777;28;20568;-68
2022/10/12 08:01:19;;;;;;;8.60;3.67;;;;;;;18.85;66.48;100313.06;5058251;28;20747;-70
2022/10/12 08:03:46;;;;;;;10.80;4.77;;;;;;;18.98;67.06;100313.69;5046756;28;20189;-68
2022/10/12 08:06:15;;;;;;;7.70;5.10;;;;;;;19.14;66.68;100318.41;5058552;28;20218;-65
2022/10/12 08:08:41;;;;;;;6.77;4.07;;;;;;;19.33;65.43;100321.88;5068183;28;20620;-66
2022/10/12 08:11:09;;;;;;;4.87;3.53;;;;;;;19.41;66.17;100318.84;5070208;28;20245;-71
2022/10/12 08:13:39;;;;;;;7.63;3.40;;;;;;;19.42;65.49;100317.78;5059348;28;20326;-71
2022/10/12 08:16:09;;;;;;;5.33;2.37;;;;;;;19.38;65.22;100313.91;5046215;28;20189;-67
2022/10/12 08:18:36;;;;;;;9.53;2.60;;;;;;;19.40;63.97;100306.44;5045509;28;20264;-69
2022/10/12 08:21:04;;;;;;;4.03;2.40;;;;;;;19.47;64.06;100318.72;5047319;28;20621;-68
2022/10/12 08:23:30;;;;;;;5.07;2.80;;;;;;;19.50;64.08;100320.13;5069426;28;20663;-67
2022/10/12 08:25:58;;;;;;;5.33;3.07;;;;;;;19.54;64.54;100315.91;5068069;28;20199;-68
2022/10/12 08:28:25;;;;;;;4.47;3.57;;;;;;;19.38;64.27;100306.66;5067811;28;20659;-66
2022/10/12 08:30:53;;;;;;;6.63;3.77;;;;;;;19.67;64.23;100323.75;5066423;28;20219;-66
2022/10/12 08:33:20;;;;;;;10.40;4.20;;;;;;;19.80;63.60;100318.13;5066993;28;20733;-67
2022/10/12 08:35:48;;;;;;;5.40;4.37;;;;;;;19.89;62.87;100327.53;5058479;28;20196;-67
2022/10/12 08:38:16;;;;;;;4.57;4.23;;;;;;;19.96;63.59;100328.19;5049926;28;20191;-69
2022/10/12 08:40:48;;;;;;;10.90;4.70;;;;;;;19.95;62.98;100324.69;5065710;28;20656;-69
2022/10/12 08:43:23;;;;;;;12.27;5.40;;;;;;;19.97;62.64;100329.88;5060567;28;20661;-73
2022/10/12 08:45:54;;;;;;;7.23;5.13;;;;;;;19.90;62.46;100334.56;5045347;28;20192;-69
2022/10/12 08:48:26;;;;;;;5.47;4.47;;;;;;;19.93;62.99;100328.69;5046890;28;20243;-68
2022/10/12 08:50:55;;;;;;;10.63;4.40;;;;;;;20.02;62.34;100327.28;5047918;28;20634;-71
2022/10/12 08:53:29;;;;;;;14.63;5.30;;;;;;;20.18;62.15;100340.06;5049901;28;20192;-67
2022/10/12 08:55:57;;;;;;;5.87;5.17;;;;;;;20.30;62.02;100340.88;5049620;28;20181;-68
2022/10/12 08:58:28;;;;;;;10.33;4.43;;;;;;;20.41;61.67;100326.50;5048128;28;20250;-69
2022/10/12 09:01:01;;;;;;;9.83;4.63;;;;;;;20.65;61.03;100332.66;5048806;28;20184;-75
2022/10/12 09:03:39;;;;;;;4.23;3.93;;;;;;;20.85;60.09;100328.44;5069705;28;20184;-72
2022/10/12 09:06:12;;;;;;;4.47;4.17;;;;;;;20.99;58.88;100329.00;5066130;28;20691;-72
2022/10/12 09:08:50;;;;;;;6.13;3.63;;;;;;;21.01;59.09;100332.25;5068191;28;20188;-70
2022/10/12 09:11:31;;;;;;;15.17;4.33;;;;;;;20.99;59.25;100335.22;5067515;28;20758;-69
2022/10/12 09:14:05;;;;;;;16.73;4.57;;;;;;;21.02;58.91;100326.63;5062434;28;20188;-70
2022/10/12 09:16:37;;;;;;;6.07;3.37;;;;;;;20.92;59.42;100334.56;5052195;28;20256;-68
2022/10/12 09:19:09;;;;;;;6.17;3.90;;;;;;;20.75;59.69;100333.66;5051048;28;20212;-68
2022/10/12 09:21:36;;;;;;;8.90;4.00;;;;;;;20.84;59.68;100332.22;5059416;28;20199;-70
2022/10/12 09:24:06;;;;;;;12.23;5.10;;;;;;;21.00;59.26;100339.56;5072262;28;20192;-72
2022/10/12 09:26:35;;;;;;;12.07;3.70;;;;;;;21.16;59.27;100330.66;5072053;28;20196;-71
2022/10/12 09:29:04;;;;;;;19.43;4.10;;;;;;;21.29;57.59;100334.94;5071530;28;20646;-75
2022/10/12 09:31:47;;;;;;;7.07;4.10;;;;;;;21.29;57.82;100332.22;5070081;28;20227;-68
2022/10/12 09:34:14;;;;;;;7.53;4.03;;;;;;;21.30;58.52;100334.69;5072817;28;20233;-73
2022/10/12 09:36:42;;;;;;;6.47;3.93;;;;;;;21.25;57.89;100334.59;5071443;28;20192;-68
2022/10/12 09:39:15;;;;;;;8.50;4.03;;;;;;;21.21;58.44;100330.75;5072129;28;20627;-69
2022/10/12 09:41:44;;;;;;;11.53;4.10;;;;;;;21.15;58.99;100323.59;5072795;28;20610;-68
2022/10/12 09:44:27;;;;;;;6.50;4.20;;;;;;;21.10;58.64;100325.44;5072991;28;20192;-69
2022/10/12 09:46:58;;;;;;;9.13;3.43;;;;;;;21.23;58.69;100317.81;5075970;28;20713;-69
2022/10/12 09:49:39;;;;;;;5.97;3.83;;;;;;;21.31;58.18;100322.81;5074241;28;20199;-69
2022/10/12 09:52:07;;;;;;;7.27;3.63;;;;;;;21.42;57.87;100319.22;5073826;28;20222;-69
2022/10/12 09:54:34;;;;;;;7.63;3.63;;;;;;;21.55;56.98;100313.47;5073885;28;20227;-69
2022/10/12 09:57:01;;;;;;;5.27;4.27;;;;;;;21.54;55.64;100311.81;5074341;28;20196;-70
2022/10/12 09:59:30;;;;;;;6.53;3.80;;;;;;;21.49;56.45;100319.88;5074300;28;20712;-69
2022/10/12 10:02:04;;;;;;;6.30;3.90;;;;;;;21.58;56.78;100315.69;5062371;28;20692;-69
2022/10/12 10:04:31;;;;;;;7.47;3.70;;;;;;;21.77;55.82;100319.78;5054286;28;20188;-69
2022/10/12 10:07:18;;;;;;;7.30;4.30;;;;;;;21.86;54.41;100314.75;5054055;28;20585;-69
2022/10/12 10:09:45;;;;;;;6.53;3.90;;;;;;;21.96;54.16;100317.63;5053751;28;20192;-70
2022/10/12 10:12:20;;;;;;;6.90;3.77;;;;;;;22.08;54.55;100308.31;5054191;28;20268;-69
2022/10/12 10:14:47;;;;;;;7.90;4.77;;;;;;;22.11;53.53;100317.81;5053576;28;20199;-69
2022/10/12 10:17:23;;;;;;;6.67;4.13;;;;;;;22.14;53.00;100301.91;5059062;28;20192;-69
2022/10/12 10:19:51;;;;;;;5.93;4.10;;;;;;;22.16;53.15;100305.16;5073554;28;20194;-69
2022/10/12 10:22:19;;;;;;;10.27;5.13;;;;;;;22.33;52.87;100308.63;5073669;28;20202;-69
2022/10/12 10:24:51;;;;;;;7.97;4.60;;;;;;;22.50;52.09;100305.88;5072329;28;20192;-69
2022/10/12 10:27:31;;;;;;;5.53;4.57;;;;;;;22.41;52.04;100308.19;5073306;28;20192;-68
2022/10/12 10:30:20;;;;;;;8.60;3.93;;;;;;;22.34;51.88;100302.13;5073506;28;20233;-69
2022/10/12 10:32:48;;;;;;;5.53;4.20;;;;;;;22.47;51.56;100293.69;5073564;28;20204;-69
2022/10/12 10:35:20;;;;;;;5.97;4.40;;;;;;;22.46;51.95;100293.91;5073241;28;20656;-69
2022/10/12 10:37:50;;;;;;;19.30;4.97;;;;;;;22.51;51.64;100281.25;5073417;28;20207;-69
2022/10/12 10:40:20;;;;;;;6.03;4.00;;;;;;;22.52;51.19;100288.31;5073489;28;20195;-69
2022/10/12 10:42:50;;;;;;;6.90;4.20;;;;;;;22.42;51.71;100277.31;5072867;28;20200;-69
2022/10/12 10:45:23;;;;;;;13.43;4.43;;;;;;;22.41;51.87;100272.97;5053423;28;20280;-69
2022/10/12 10:48:00;;;;;;;6.70;4.23;;;;;;;22.25;52.26;100275.78;5052925;28;20181;-69
2022/10/12 10:50:32;;;;;;;9.07;3.90;;;;;;;22.36;55.24;100264.81;5053180;28;20195;-68
2022/10/12 10:53:01;;;;;;;25.93;5.60;;;;;;;22.57;53.65;100263.16;5053076;28;20553;-66
2022/10/12 10:55:41;;;;;;;12.03;5.40;;;;;;;22.88;51.45;100265.09;5051460;28;20197;-64
2022/10/12 10:58:19;;;;;;;8.27;4.23;;;;;;;23.09;51.77;100262.31;5066514;28;20207;-66
2022/10/12 11:00:48;;;;;;;5.07;4.33;;;;;;;23.23;49.66;100268.16;5070377;28;20617;-66
2022/10/12 11:03:23;;;;;;;7.87;4.20;;;;;;;23.24;48.72;100265.16;5052999;28;20250;-65
2022/10/12 11:05:53;;;;;;;4.27;3.97;;;;;;;23.24;48.49;100254.31;5053217;28;20243;-66
2022/10/12 11:08:24;;;;;;;8.33;4.07;;;;;;;23.37;50.07;100253.91;5052486;28;20251;-66
2022/10/12 11:10:56;;;;;;;53.43;9.40;;;;;;;23.43;47.46;100252.84;5052727;28;20331;-65
2022/10/12 11:13:27;;;;;;;11.27;3.97;;;;;;;23.40;49.13;100252.56;5055896;28;20202;-66
2022/10/12 11:15:58;;;;;;;13.63;4.83;;;;;;;23.39;48.15;100256.31;5072435;28;20213;-66
2022/10/12 11:18:34;;;;;;;4.97;3.50;;;;;;;23.20;48.44;100247.78;5072248;28;20246;-66
2022/10/12 11:21:04;;;;;;;4.43;4.03;;;;;;;23.24;48.49;100238.03;5072285;28;20185;-66
2022/10/12 11:23:42;;;;;;;14.13;4.93;;;;;;;23.35;47.46;100245.19;5072568;28;20238;-67
2022/10/12 11:26:17;;;;;;;7.60;4.33;;;;;;;23.21;48.39;100233.16;5072666;28;20549;-68
2022/10/12 11:28:44;;;;;;;19.13;4.80;;;;;;;23.19;48.45;100232.56;5072104;28;20184;-68
2022/10/12 11:31:18;;;;;;;10.47;4.03;;;;;;;23.18;49.18;100222.81;5072168;28;20724;-68